SABESADF

Guest
Details From SABE - Aeroparque Jorge Newbery
To SADF - San Fernando
Flight Number -
Tags Generated
Created
Modified
Stats Distance 10 nm / 19 km
Max Altitude 0 ft / 0 m
Waypoints 2
Social Downloads 0
Likes 0
Share VATSIM

Download

Looking for another format? Having issues loading an existing format? Contact us
Advertisement - Login to hide

Notes

Generated

Route

SABE SADF

ID Type Via Altitude Latitude Longitude Leg Dist Tot Dist Heading (true) Name
O SABE APT - 0 ft / 0 m -34.55416˚ -58.42526˚ - 0 nm - -
O SADF APT - 0 ft / 0 m -34.45986˚ -58.59704˚ 10 nm 10 nm 304° / 304° -

Altitude Profile

Advertisement - Login to hide

SABE

Details ICAO SABE (AEP)
Name Aeroparque Jorge Newbery
Region Argentina
Timezone Unknown (UTC+0.0)
Stats Elevation 17 ft / 5 m (AMSL)
Location -34.559414° -58.415749°
Runways 1
Magnetic Variation 9.053° W

METAR

SABE 220600Z 25004KT CAVOK 11/04 Q1021

Decode

TAF

TAF SABE 220500Z 2206/2306 20005KT CAVOK TX16/2218Z TN08/2210Z BECMG 2212/2214 25010KT

Decode

Departure Runways

ID Width Length Bearing (true) Bearing (mag) Surface Threshold Offset Overrun Length
13 131 ft / 40 m 6,882 ft / 2,098 m 123.87° 132.92° Concrete 0 ft / 0 m 791 ft / 241 m
31 131 ft / 40 m 6,882 ft / 2,098 m 303.86° 312.91° Concrete 991 ft / 302 m 0 ft / 0 m

SADF

Details ICAO SADF
Name San Fernando
Region Argentina
Timezone America/Argentina/Buenos_Aires (UTC-3.0)
Stats Elevation 10 ft / 3 m (AMSL)
Location -34.454044° -58.590226°
Runways 1
Magnetic Variation 8.964° W

METAR

SADF 220600Z 00000KT CAVOK 05/04 Q1021

Decode

TAF

TAF SADF 220500Z 2206/2306 25005KT CAVOK TX17/2218Z TN07/2210Z PROB30 2208/2211 4000 BR NSC BECMG 2212/2214 25010KT BECMG 2222/2224 29005KT

Decode

Destination Runways

ID Width Length Bearing (true) Bearing (mag) Surface Threshold Offset Overrun Length
05 131 ft / 40 m 5,904 ft / 1,800 m 44.03° 52.99° Asphalt 0 ft / 0 m 0 ft / 0 m
23 131 ft / 40 m 5,904 ft / 1,800 m 224.02° 232.98° Asphalt 899 ft / 274 m 0 ft / 0 m